Accomac, Pennsylvania
Current Conditions -  °F | °C
As of 2:56 AM on Monday 24 Nov 2014 (Local Time) from KMDT Reporting Station
Light Rain Light Rain  
Wind Chill: 56°   Ceiling: 1400
Heat Index: 56°   Visibility: 7mi
Dew Point: 54°   Wind: 14mph
Humidity: 93%   Direction: 150°SSE
Pressure: 29.63"   Gusts: NA
Location:  40.0152°N, 76.5974°W
Report Text: KMDT 240756Z 15012KT 7SM -RA BKN014 OVC021 13/12 A2963 RMK AO2 SLP034 P0007 T01330122
Loading
Personal Weather Stations






























Interactive Weather Map New forecast layout! Learn more

10-Day Weather Forecast

Advertisements
Track Severe Weather on mobile